Time;durP1;ratioP1;P1;durP2;ratioP2;P2;SDS_P1;SDS_P2;PMS_P1;PMS_P2;Temp;Humidity;BMP_temperature;BMP_pressure;BME280_temperature;BME280_humidity;BME280_pressure;Samples;Min_cycle;Max_cycle;Signal;HPM_P1;HPM_P2
2024/02/18 00:00:51;;;;;;;12.43;8.88;;;11.00;96.70;;;;;;4944113;28;20067;-66
2024/02/18 00:03:21;;;;;;;13.20;9.15;;;11.00;96.70;;;;;;4945073;28;20655;-67
2024/02/18 00:05:51;;;;;;;11.40;8.55;;;10.90;96.70;;;;;;4929199;29;20056;-66
2024/02/18 00:08:21;;;;;;;10.73;8.07;;;10.90;96.70;;;;;;4928789;29;20059;-67
2024/02/18 00:10:49;;;;;;;8.05;6.68;;;10.90;96.70;;;;;;4928614;29;20138;-68
2024/02/18 00:13:19;;;;;;;10.13;7.07;;;10.80;96.70;;;;;;4924630;29;20051;-67
2024/02/18 00:15:48;;;;;;;9.20;6.35;;;10.70;96.70;;;;;;4928091;29;20171;-68
2024/02/18 00:18:17;;;;;;;8.50;6.25;;;10.70;96.70;;;;;;4928504;29;20058;-67
2024/02/18 00:20:50;;;;;;;8.63;5.97;;;10.70;96.70;;;;;;4920434;29;20039;-67
2024/02/18 00:23:19;;;;;;;7.20;4.82;;;10.60;96.70;;;;;;4937068;29;20064;-67
2024/02/18 00:25:49;;;;;;;7.90;5.30;;;10.60;96.70;;;;;;4927753;29;20054;-67
2024/02/18 00:28:19;;;;;;;7.32;5.32;;;10.50;96.70;;;;;;4928297;29;20159;-67
2024/02/18 00:30:50;;;;;;;8.50;5.80;;;10.60;96.70;;;;;;4928472;29;20107;-68
2024/02/18 00:33:19;;;;;;;8.65;4.75;;;10.60;96.70;;;;;;4909575;29;20048;-67
2024/02/18 00:35:49;;;;;;;10.27;5.72;;;10.60;96.70;;;;;;4926548;29;20513;-67
2024/02/18 00:38:18;;;;;;;6.85;5.00;;;10.50;96.70;;;;;;4928326;29;20146;-67
2024/02/18 00:40:48;;;;;;;6.18;5.50;;;10.60;96.70;;;;;;4928178;29;20087;-67
2024/02/18 00:43:20;;;;;;;7.97;6.05;;;10.60;96.70;;;;;;4924088;29;20154;-67
2024/02/18 00:45:48;;;;;;;10.30;6.88;;;10.60;96.70;;;;;;4927877;29;20516;-68
2024/02/18 00:48:16;;;;;;;9.00;6.10;;;10.50;96.70;;;;;;4929146;28;20044;-66
2024/02/18 00:50:46;;;;;;;9.13;5.72;;;10.40;96.70;;;;;;4912668;29;20048;-68
2024/02/18 00:53:16;;;;;;;7.07;4.93;;;10.40;96.70;;;;;;4926645;29;20056;-68
2024/02/18 00:55:45;;;;;;;7.45;4.72;;;10.30;96.70;;;;;;4912342;29;20062;-67
2024/02/18 00:58:14;;;;;;;6.00;4.60;;;10.30;96.70;;;;;;4927492;29;20134;-67
2024/02/18 01:00:43;;;;;;;6.05;4.75;;;10.30;96.70;;;;;;4921833;29;20102;-67
2024/02/18 01:03:12;;;;;;;5.78;4.40;;;10.20;96.70;;;;;;4918255;29;20055;-67
2024/02/18 01:05:41;;;;;;;6.68;4.50;;;10.20;96.70;;;;;;4921587;29;20067;-67
2024/02/18 01:08:09;;;;;;;5.47;4.35;;;10.20;96.70;;;;;;4927687;29;20081;-67
2024/02/18 01:10:40;;;;;;;6.20;4.20;;;10.20;96.70;;;;;;4922327;29;20725;-68
2024/02/18 01:13:08;;;;;;;5.53;3.85;;;10.20;96.70;;;;;;4928104;29;20094;-68
2024/02/18 01:15:39;;;;;;;5.60;4.28;;;10.10;96.70;;;;;;4924597;29;20051;-67
2024/02/18 01:18:07;;;;;;;5.95;4.30;;;10.10;96.70;;;;;;4941960;29;20051;-67
2024/02/18 01:20:36;;;;;;;6.32;4.45;;;10.00;96.70;;;;;;4942062;28;20047;-67
2024/02/18 01:23:05;;;;;;;8.25;4.70;;;10.00;96.70;;;;;;4942359;28;20056;-68
2024/02/18 01:25:35;;;;;;;9.30;5.22;;;10.00;96.70;;;;;;4926194;29;20055;-67
2024/02/18 01:28:05;;;;;;;7.93;5.60;;;10.10;96.70;;;;;;4930869;29;20846;-67
2024/02/18 01:30:36;;;;;;;7.82;5.75;;;10.10;96.70;;;;;;4926035;29;20043;-66
2024/02/18 01:33:05;;;;;;;8.68;6.65;;;10.10;96.70;;;;;;4922617;29;20496;-66
2024/02/18 01:35:33;;;;;;;10.43;6.78;;;10.20;96.70;;;;;;4911406;29;20413;-67
2024/02/18 01:38:01;;;;;;;12.30;7.78;;;10.10;96.70;;;;;;4924556;29;20450;-67
2024/02/18 01:40:30;;;;;;;11.95;7.97;;;10.10;96.70;;;;;;4941580;29;20720;-67
2024/02/18 01:42:59;;;;;;;10.50;7.43;;;10.10;96.70;;;;;;4929666;29;20524;-67
2024/02/18 01:45:29;;;;;;;9.93;7.03;;;10.00;96.70;;;;;;4914087;29;20055;-67
2024/02/18 01:47:57;;;;;;;8.68;6.85;;;10.00;96.70;;;;;;4938633;29;20562;-67
2024/02/18 01:50:29;;;;;;;8.10;5.90;;;10.00;96.70;;;;;;4928393;29;20063;-67
2024/02/18 01:52:57;;;;;;;6.68;4.80;;;9.90;96.70;;;;;;4931848;29;20063;-67
2024/02/18 01:55:26;;;;;;;6.00;4.60;;;9.80;96.70;;;;;;4937694;28;20044;-67
2024/02/18 01:57:57;;;;;;;7.63;4.47;;;9.80;96.70;;;;;;4931177;29;20052;-67
2024/02/18 02:00:27;;;;;;;7.03;4.32;;;9.80;96.70;;;;;;4914813;29;20051;-67
2024/02/18 02:03:01;;;;;;;7.72;5.05;;;9.80;96.70;;;;;;4926185;29;20750;-67
2024/02/18 02:05:31;;;;;;;8.10;5.30;;;9.80;96.70;;;;;;4915668;29;20063;-67
2024/02/18 02:08:02;;;;;;;7.30;5.68;;;9.80;96.70;;;;;;4926470;29;20466;-67
2024/02/18 02:10:31;;;;;;;9.95;6.43;;;9.80;96.70;;;;;;4913516;29;20055;-67
2024/02/18 02:13:00;;;;;;;7.32;5.65;;;9.70;96.70;;;;;;4931143;29;20051;-65
2024/02/18 02:15:31;;;;;;;7.75;5.10;;;9.70;96.70;;;;;;4928488;29;20056;-67
2024/02/18 02:18:03;;;;;;;7.65;5.25;;;9.70;96.70;;;;;;4911733;29;20048;-66
2024/02/18 02:20:32;;;;;;;6.53;4.82;;;9.70;96.70;;;;;;4915295;29;20055;-67
2024/02/18 02:23:01;;;;;;;5.82;4.72;;;9.70;96.70;;;;;;4914440;29;20382;-67
2024/02/18 02:25:30;;;;;;;6.78;4.68;;;9.70;96.70;;;;;;4930072;29;20781;-66
2024/02/18 02:28:07;;;;;;;6.90;4.47;;;9.60;96.70;;;;;;4909610;29;20051;-67
2024/02/18 02:30:37;;;;;;;6.90;3.70;;;9.50;96.70;;;;;;4915101;29;20054;-67
2024/02/18 02:33:05;;;;;;;6.88;4.57;;;9.40;96.70;;;;;;4914580;29;20066;-66
2024/02/18 02:35:36;;;;;;;6.85;4.60;;;9.40;96.70;;;;;;4929783;29;20059;-67
2024/02/18 02:38:05;;;;;;;7.65;4.63;;;9.30;96.70;;;;;;4928509;29;20047;-67
2024/02/18 02:40:34;;;;;;;7.18;4.75;;;9.20;96.70;;;;;;4929616;29;20039;-67
2024/02/18 02:43:02;;;;;;;6.32;4.70;;;9.20;96.70;;;;;;4940689;28;20051;-67
2024/02/18 02:45:31;;;;;;;7.13;5.80;;;9.20;96.70;;;;;;4921979;29;20086;-66
2024/02/18 02:48:28;;;;;;;10.80;6.70;;;9.10;96.70;;;;;;4929019;29;20063;-67
2024/02/18 02:50:57;;;;;;;9.35;5.90;;;9.20;96.70;;;;;;4925732;29;20048;-66
2024/02/18 02:53:27;;;;;;;7.18;5.75;;;9.20;96.70;;;;;;4929302;29;20074;-67
2024/02/18 02:55:55;;;;;;;7.35;5.97;;;9.20;96.70;;;;;;4929531;29;20079;-66
2024/02/18 02:58:25;;;;;;;7.55;5.70;;;9.10;96.70;;;;;;4918316;29;20499;-66
2024/02/18 03:00:54;;;;;;;9.90;6.82;;;9.10;96.70;;;;;;4923617;29;20048;-67
2024/02/18 03:03:23;;;;;;;8.32;6.50;;;9.10;96.70;;;;;;4928419;29;20086;-67
2024/02/18 03:05:54;;;;;;;9.50;6.63;;;9.20;96.70;;;;;;4941009;28;20047;-68
2024/02/18 03:08:22;;;;;;;10.52;7.30;;;9.20;96.70;;;;;;4926765;29;20544;-67
2024/02/18 03:10:51;;;;;;;10.20;6.85;;;9.10;96.70;;;;;;4930312;29;20798;-67
2024/02/18 03:13:20;;;;;;;10.95;6.82;;;9.10;96.70;;;;;;4945363;29;20082;-67
2024/02/18 03:15:50;;;;;;;9.55;6.97;;;9.10;96.70;;;;;;4926986;29;20054;-67
2024/02/18 03:18:25;;;;;;;9.18;6.60;;;9.00;96.70;;;;;;4927955;29;20048;-66
2024/02/18 03:20:57;;;;;;;10.15;6.70;;;9.10;96.70;;;;;;4926280;29;20056;-67
2024/02/18 03:23:27;;;;;;;7.90;6.40;;;9.10;96.70;;;;;;4925789;29;20104;-67
2024/02/18 03:25:56;;;;;;;12.63;6.65;;;9.10;96.70;;;;;;4930782;29;20097;-67
2024/02/18 03:28:25;;;;;;;9.63;6.63;;;9.00;96.70;;;;;;4929705;29;20413;-66
2024/02/18 03:30:54;;;;;;;8.13;5.97;;;9.00;96.70;;;;;;4902993;29;20050;-67
2024/02/18 03:33:23;;;;;;;9.45;6.70;;;8.90;96.70;;;;;;4928264;29;20060;-67
2024/02/18 03:35:52;;;;;;;11.40;6.50;;;8.90;96.70;;;;;;4908695;29;20082;-67
2024/02/18 03:38:22;;;;;;;9.18;6.57;;;9.00;96.70;;;;;;4943773;29;20452;-67
2024/02/18 03:40:52;;;;;;;7.57;6.43;;;8.90;96.70;;;;;;4927786;29;20126;-67
2024/02/18 03:43:20;;;;;;;9.68;6.82;;;9.00;96.70;;;;;;4929362;29;20098;-67
2024/02/18 03:45:49;;;;;;;8.05;6.03;;;8.90;96.70;;;;;;4929035;29;20051;-67
2024/02/18 03:48:18;;;;;;;10.80;6.25;;;8.90;96.70;;;;;;4913191;29;20896;-66
2024/02/18 03:50:48;;;;;;;8.35;5.90;;;8.90;96.70;;;;;;4906693;29;20044;-67
2024/02/18 03:53:17;;;;;;;8.02;5.93;;;8.80;96.70;;;;;;4921585;29;20087;-66
2024/02/18 03:55:48;;;;;;;8.43;6.53;;;8.80;96.70;;;;;;4928809;29;20509;-65
2024/02/18 03:58:17;;;;;;;9.82;6.35;;;8.70;96.70;;;;;;4942139;29;20123;-67
2024/02/18 04:00:47;;;;;;;9.02;5.88;;;8.70;96.70;;;;;;4927180;29;20519;-67
2024/02/18 04:03:15;;;;;;;10.77;6.28;;;8.70;96.70;;;;;;4910367;29;20080;-67
2024/02/18 04:05:44;;;;;;;9.57;6.68;;;8.70;96.70;;;;;;4928734;29;20044;-67
2024/02/18 04:08:13;;;;;;;9.32;6.35;;;8.60;96.70;;;;;;4927951;29;20051;-66
2024/02/18 04:10:42;;;;;;;9.73;6.57;;;8.60;96.70;;;;;;4927123;29;20079;-67
2024/02/18 04:13:14;;;;;;;8.95;6.40;;;8.60;96.70;;;;;;4926956;29;20594;-67
2024/02/18 04:15:43;;;;;;;9.25;6.20;;;8.60;96.70;;;;;;4943708;28;20059;-67
2024/02/18 04:18:12;;;;;;;8.63;6.30;;;8.50;96.70;;;;;;4910266;29;20058;-67
2024/02/18 04:20:41;;;;;;;8.90;5.70;;;8.50;96.70;;;;;;4928252;29;20083;-67
2024/02/18 04:23:10;;;;;;;8.18;5.95;;;8.50;96.70;;;;;;4929899;29;20500;-66
2024/02/18 04:25:40;;;;;;;7.43;5.65;;;8.50;96.70;;;;;;4927969;29;20536;-67
2024/02/18 04:28:09;;;;;;;7.60;5.63;;;8.50;96.70;;;;;;4920364;29;20051;-67
2024/02/18 04:30:42;;;;;;;6.95;5.55;;;8.50;96.70;;;;;;4925706;29;20044;-67
2024/02/18 04:33:13;;;;;;;8.23;5.72;;;8.50;96.70;;;;;;4928163;29;20063;-67
2024/02/18 04:35:42;;;;;;;7.35;5.40;;;8.50;96.70;;;;;;4927656;29;20079;-67
2024/02/18 04:38:11;;;;;;;9.57;5.30;;;8.50;96.70;;;;;;4924782;29;20062;-66
2024/02/18 04:40:40;;;;;;;7.72;5.40;;;8.50;96.70;;;;;;4907164;29;20501;-67
2024/02/18 04:43:09;;;;;;;7.45;4.90;;;8.50;96.70;;;;;;4912142;29;20118;-66
2024/02/18 04:45:40;;;;;;;6.65;4.60;;;8.40;96.70;;;;;;4920117;29;20046;-67
2024/02/18 04:48:09;;;;;;;9.10;4.70;;;8.40;96.70;;;;;;4922469;29;20535;-67
2024/02/18 04:50:38;;;;;;;7.85;5.40;;;8.30;96.70;;;;;;4928479;29;20050;-67
2024/02/18 04:53:07;;;;;;;7.20;5.07;;;8.30;96.70;;;;;;4942145;29;20059;-67
2024/02/18 04:55:36;;;;;;;7.50;5.57;;;8.30;96.70;;;;;;4938811;28;20055;-67
2024/02/18 04:58:05;;;;;;;8.43;5.82;;;8.40;96.70;;;;;;4924674;29;20075;-67
2024/02/18 05:00:37;;;;;;;7.78;5.50;;;8.40;96.70;;;;;;4921096;29;20130;-67
2024/02/18 05:03:08;;;;;;;9.15;5.70;;;8.40;96.70;;;;;;4928445;29;20059;-67
2024/02/18 05:05:37;;;;;;;9.07;5.38;;;8.30;96.70;;;;;;4921200;29;20047;-67
2024/02/18 05:08:06;;;;;;;8.43;5.57;;;8.30;96.70;;;;;;4919031;29;20074;-66
2024/02/18 05:10:37;;;;;;;8.07;6.00;;;8.20;96.70;;;;;;4943726;28;20060;-67
2024/02/18 05:13:07;;;;;;;9.02;5.45;;;8.10;96.70;;;;;;4922568;29;20122;-67
2024/02/18 05:15:36;;;;;;;8.23;5.50;;;8.10;96.70;;;;;;4911604;29;20070;-67
2024/02/18 05:18:07;;;;;;;7.50;5.72;;;8.20;96.70;;;;;;4920455;29;20417;-67
2024/02/18 05:20:37;;;;;;;8.88;5.70;;;8.10;96.70;;;;;;4940332;28;20310;-69
2024/02/18 05:23:05;;;;;;;7.65;5.60;;;8.20;96.70;;;;;;4925099;29;20473;-69
2024/02/18 05:25:36;;;;;;;9.35;5.75;;;8.20;96.70;;;;;;4928927;29;20059;-69
2024/02/18 05:28:08;;;;;;;8.73;5.82;;;8.10;96.70;;;;;;4922506;29;20047;-69
2024/02/18 05:30:38;;;;;;;7.90;5.55;;;8.10;96.70;;;;;;4912301;29;20070;-69
2024/02/18 05:33:09;;;;;;;6.22;5.00;;;8.10;96.70;;;;;;4917694;29;20099;-69
2024/02/18 05:35:39;;;;;;;8.43;4.32;;;8.10;96.70;;;;;;4921945;29;20048;-69
2024/02/18 05:38:09;;;;;;;5.75;4.18;;;8.00;96.70;;;;;;4912191;29;20040;-69
2024/02/18 05:40:38;;;;;;;7.38;4.88;;;8.00;96.70;;;;;;4925595;29;20055;-69
2024/02/18 05:43:08;;;;;;;5.97;4.38;;;8.10;96.70;;;;;;4928685;29;20059;-70
2024/02/18 05:45:39;;;;;;;6.72;4.30;;;8.20;96.70;;;;;;4934333;29;20059;-69
2024/02/18 05:48:12;;;;;;;6.78;4.60;;;8.10;96.70;;;;;;4920016;29;20062;-69
2024/02/18 05:50:41;;;;;;;7.00;4.38;;;8.00;96.70;;;;;;4922099;29;20051;-69
2024/02/18 05:53:12;;;;;;;5.72;4.80;;;7.90;96.70;;;;;;4923168;29;20052;-69
2024/02/18 05:55:44;;;;;;;6.95;4.38;;;8.00;96.70;;;;;;4911411;29;20064;-69
2024/02/18 05:58:16;;;;;;;7.93;5.25;;;8.00;96.70;;;;;;4938385;29;20171;-69
2024/02/18 06:00:46;;;;;;;8.10;4.93;;;7.90;96.70;;;;;;4927839;29;20047;-69
2024/02/18 06:03:22;;;;;;;6.03;4.10;;;7.90;96.70;;;;;;4912572;29;20416;-70
2024/02/18 06:05:51;;;;;;;6.45;3.95;;;7.90;96.70;;;;;;4927144;29;20147;-69
2024/02/18 06:08:23;;;;;;;9.00;4.57;;;7.90;96.70;;;;;;4926594;29;20052;-69
2024/02/18 06:10:53;;;;;;;7.50;4.18;;;7.90;96.70;;;;;;4926995;29;20795;-69
2024/02/18 06:13:22;;;;;;;5.47;4.15;;;7.90;96.70;;;;;;4926519;29;20106;-69
2024/02/18 06:15:52;;;;;;;5.63;4.00;;;7.90;96.70;;;;;;4923696;29;20052;-69
2024/02/18 06:18:24;;;;;;;6.43;4.30;;;7.80;96.70;;;;;;4914221;29;20054;-69
2024/02/18 06:20:53;;;;;;;7.80;5.00;;;7.70;96.70;;;;;;4926244;29;20048;-70
2024/02/18 06:23:24;;;;;;;6.18;4.70;;;7.70;96.70;;;;;;4943219;29;20048;-69
2024/02/18 06:25:55;;;;;;;7.35;5.10;;;7.70;96.70;;;;;;4919502;29;20052;-69
2024/02/18 06:28:31;;;;;;;8.15;4.88;;;7.80;96.70;;;;;;4915026;29;20060;-69
2024/02/18 06:31:07;;;;;;;7.38;5.13;;;7.80;96.70;;;;;;4926762;29;20123;-69
2024/02/18 06:33:37;;;;;;;8.57;5.45;;;7.70;96.70;;;;;;4921672;29;20487;-69
2024/02/18 06:36:08;;;;;;;7.53;5.18;;;7.70;96.70;;;;;;4928845;29;20048;-69
2024/02/18 06:38:41;;;;;;;8.75;5.47;;;7.80;96.70;;;;;;4914748;29;20063;-69
2024/02/18 06:41:13;;;;;;;8.10;5.18;;;7.80;96.70;;;;;;4921485;29;20511;-69
2024/02/18 06:43:42;;;;;;;7.88;5.10;;;7.80;96.70;;;;;;4927667;29;20066;-69
2024/02/18 06:46:11;;;;;;;8.13;5.30;;;7.80;96.70;;;;;;4926285;29;20596;-69
2024/02/18 06:48:44;;;;;;;7.05;4.70;;;7.80;96.70;;;;;;4926367;29;20453;-69
2024/02/18 06:51:14;;;;;;;7.32;5.60;;;7.80;96.70;;;;;;4925060;29;20561;-69
2024/02/18 06:53:42;;;;;;;7.45;5.45;;;7.90;96.70;;;;;;4930452;29;20186;-69
2024/02/18 06:56:12;;;;;;;8.32;5.28;;;7.90;96.70;;;;;;4927400;29;20047;-69
2024/02/18 06:58:45;;;;;;;7.05;5.38;;;7.80;96.70;;;;;;4928777;29;20614;-69
2024/02/18 07:01:19;;;;;;;6.93;5.72;;;7.80;96.70;;;;;;4929503;29;20051;-69
2024/02/18 07:03:52;;;;;;;7.07;5.28;;;7.90;96.70;;;;;;4928949;29;20083;-69
2024/02/18 07:06:23;;;;;;;10.10;5.90;;;7.90;96.70;;;;;;4928026;29;20397;-69
2024/02/18 07:08:53;;;;;;;7.85;6.07;;;8.00;96.70;;;;;;4928844;29;20063;-69
2024/02/18 07:11:25;;;;;;;9.95;7.03;;;8.00;96.70;;;;;;4925578;29;20079;-69
2024/02/18 07:13:56;;;;;;;10.90;7.80;;;7.90;96.70;;;;;;4912745;29;20055;-69
2024/02/18 07:16:25;;;;;;;12.10;8.90;;;8.10;96.70;;;;;;4921239;29;20063;-69
2024/02/18 07:18:56;;;;;;;10.88;9.35;;;8.10;96.70;;;;;;4912441;29;20070;-69
2024/02/18 07:21:25;;;;;;;12.55;9.18;;;8.20;96.70;;;;;;4910653;29;20056;-70
2024/02/18 07:23:54;;;;;;;11.18;7.80;;;8.30;96.70;;;;;;4927791;29;20048;-69
2024/02/18 07:26:23;;;;;;;10.05;7.25;;;8.30;96.70;;;;;;4911086;29;20056;-70
2024/02/18 07:28:52;;;;;;;9.63;7.30;;;8.30;96.70;;;;;;4945214;28;20079;-68
2024/02/18 07:31:24;;;;;;;12.02;7.47;;;8.30;96.70;;;;;;4929574;29;20055;-68
2024/02/18 07:33:55;;;;;;;9.82;7.10;;;8.40;96.70;;;;;;4940256;28;20044;-69
2024/02/18 07:36:24;;;;;;;7.60;5.93;;;8.40;96.70;;;;;;4911876;29;20056;-69
2024/02/18 07:38:56;;;;;;;8.07;5.90;;;8.50;96.70;;;;;;4912566;29;20111;-69
2024/02/18 07:41:26;;;;;;;10.82;7.13;;;8.60;96.70;;;;;;4929308;29;20421;-69
2024/02/18 07:43:56;;;;;;;10.18;7.50;;;8.60;96.70;;;;;;4945501;28;20064;-69
2024/02/18 07:46:28;;;;;;;8.98;7.70;;;8.70;96.70;;;;;;4914593;29;20051;-70
2024/02/18 07:49:01;;;;;;;11.35;8.13;;;8.80;96.70;;;;;;4945059;28;20745;-69
2024/02/18 07:51:32;;;;;;;10.65;8.00;;;8.80;96.70;;;;;;4928604;29;20055;-69
2024/02/18 07:54:01;;;;;;;10.52;7.70;;;8.90;96.70;;;;;;4930757;29;20051;-70
2024/02/18 07:56:32;;;;;;;8.88;7.00;;;9.00;96.70;;;;;;4925715;29;20106;-69
2024/02/18 07:59:01;;;;;;;9.52;7.85;;;9.00;96.70;;;;;;4912568;29;20056;-68
2024/02/18 08:01:30;;;;;;;9.98;7.53;;;9.00;96.70;;;;;;4941857;28;20591;-69
2024/02/18 08:04:02;;;;;;;10.05;7.60;;;9.10;96.70;;;;;;4943460;29;21254;-69
2024/02/18 08:06:32;;;;;;;12.38;8.57;;;9.20;96.70;;;;;;4928478;29;20056;-70
2024/02/18 08:09:03;;;;;;;11.75;7.82;;;9.30;96.70;;;;;;4923890;29;20151;-69
2024/02/18 08:11:31;;;;;;;11.07;7.90;;;9.40;96.70;;;;;;4923650;29;20135;-69
2024/02/18 08:14:02;;;;;;;16.67;10.02;;;9.50;96.70;;;;;;4925449;28;20052;-69
2024/02/18 08:16:31;;;;;;;14.65;10.60;;;9.60;96.70;;;;;;4919163;29;20073;-70
2024/02/18 08:19:02;;;;;;;14.07;10.38;;;9.70;96.70;;;;;;4928411;29;20070;-69
2024/02/18 08:21:37;;;;;;;12.63;8.27;;;9.80;96.70;;;;;;4928145;29;20464;-69
2024/02/18 08:24:08;;;;;;;11.48;8.20;;;9.90;96.70;;;;;;4927764;29;20059;-69
2024/02/18 08:26:37;;;;;;;10.95;8.05;;;9.90;96.70;;;;;;4925317;29;20052;-69
2024/02/18 08:29:08;;;;;;;9.27;7.82;;;9.90;96.70;;;;;;4922833;29;20070;-70
2024/02/18 08:31:38;;;;;;;8.25;6.97;;;10.00;96.70;;;;;;4922233;29;20110;-69
2024/02/18 08:34:11;;;;;;;10.82;6.90;;;10.10;96.70;;;;;;4922512;29;20044;-69
2024/02/18 08:36:41;;;;;;;8.55;6.55;;;10.20;96.70;;;;;;4943739;28;20536;-68
2024/02/18 08:39:10;;;;;;;10.15;6.68;;;10.30;96.70;;;;;;4927946;29;20138;-65
2024/02/18 08:41:40;;;;;;;11.35;7.03;;;10.40;96.70;;;;;;4922566;29;20135;-65
2024/02/18 08:44:14;;;;;;;9.35;7.13;;;10.50;96.70;;;;;;4922210;29;20060;-65
2024/02/18 08:46:43;;;;;;;10.57;7.45;;;10.60;96.70;;;;;;4927056;29;20055;-65
2024/02/18 08:49:16;;;;;;;9.63;7.00;;;10.70;96.70;;;;;;4918245;29;20052;-65
2024/02/18 08:51:46;;;;;;;11.63;7.93;;;10.80;96.70;;;;;;4926583;29;20051;-65
2024/02/18 08:54:16;;;;;;;10.63;7.32;;;10.80;96.70;;;;;;4912202;29;20082;-66
2024/02/18 08:56:47;;;;;;;9.98;7.88;;;10.90;96.70;;;;;;4927945;29;20464;-65
2024/02/18 08:59:16;;;;;;;9.18;7.05;;;11.00;96.70;;;;;;4904634;29;20059;-65
2024/02/18 09:01:55;;;;;;;10.35;8.38;;;11.10;96.70;;;;;;4925863;29;20047;-66
2024/02/18 09:04:25;;;;;;;13.23;8.80;;;11.20;96.70;;;;;;4911570;29;20065;-65
2024/02/18 09:06:55;;;;;;;14.40;10.20;;;11.20;96.70;;;;;;4920930;29;20044;-65
2024/02/18 09:09:24;;;;;;;12.48;9.25;;;11.30;96.70;;;;;;4925190;29;20044;-67
2024/02/18 09:11:53;;;;;;;12.45;9.48;;;11.40;96.70;;;;;;4911376;29;20102;-67
2024/02/18 09:14:22;;;;;;;10.63;8.95;;;11.40;96.70;;;;;;4926086;29;20796;-68
2024/02/18 09:16:51;;;;;;;16.83;11.55;;;11.60;96.70;;;;;;4909989;29;20161;-69
2024/02/18 09:19:19;;;;;;;15.10;11.35;;;11.70;96.70;;;;;;4927645;29;20039;-70
2024/02/18 09:21:49;;;;;;;11.45;8.82;;;11.80;96.70;;;;;;4927206;29;20118;-66
2024/02/18 09:24:19;;;;;;;14.85;10.60;;;11.90;96.70;;;;;;4909433;29;20051;-68
2024/02/18 09:26:47;;;;;;;23.65;16.75;;;11.90;96.70;;;;;;4923674;29;20655;-69
2024/02/18 09:29:17;;;;;;;15.43;11.38;;;12.10;96.70;;;;;;4927300;29;20047;-68
2024/02/18 09:31:47;;;;;;;14.18;9.60;;;12.30;96.70;;;;;;4923465;29;20054;-68
2024/02/18 09:34:16;;;;;;;11.75;9.05;;;12.40;96.70;;;;;;4903672;29;20517;-68
2024/02/18 09:36:45;;;;;;;14.45;9.85;;;12.50;96.70;;;;;;4927620;29;20070;-69
2024/02/18 09:39:16;;;;;;;13.93;9.38;;;12.60;96.70;;;;;;4924029;29;20059;-69
2024/02/18 09:41:46;;;;;;;17.85;11.18;;;12.80;96.70;;;;;;4927568;29;20051;-69
2024/02/18 09:44:17;;;;;;;13.68;10.63;;;12.90;96.70;;;;;;4927739;29;20059;-69
2024/02/18 09:46:49;;;;;;;15.45;10.90;;;13.00;96.70;;;;;;4912210;29;20056;-69
2024/02/18 09:49:19;;;;;;;15.38;10.73;;;13.00;96.70;;;;;;4930284;29;20055;-69
2024/02/18 09:51:53;;;;;;;15.45;10.55;;;13.10;96.70;;;;;;4914979;29;20059;-69
2024/02/18 09:54:25;;;;;;;12.25;9.75;;;13.20;96.70;;;;;;4946855;29;20142;-69
2024/02/18 09:56:54;;;;;;;14.40;10.25;;;13.30;96.70;;;;;;4930933;29;20102;-69
2024/02/18 09:59:23;;;;;;;11.95;9.40;;;13.30;96.70;;;;;;4930138;29;20055;-69
2024/02/18 10:01:58;;;;;;;13.20;9.70;;;13.40;96.70;;;;;;4914930;29;20075;-70
2024/02/18 10:04:28;;;;;;;12.68;9.70;;;13.50;96.70;;;;;;4911895;29;20187;-70
2024/02/18 10:06:57;;;;;;;14.18;9.40;;;13.60;96.70;;;;;;4920969;29;20056;-70
2024/02/18 10:09:31;;;;;;;11.88;9.77;;;13.70;96.70;;;;;;4931213;29;20429;-69
2024/02/18 10:12:00;;;;;;;11.30;9.65;;;13.90;96.70;;;;;;4921544;29;20589;-70
2024/02/18 10:14:28;;;;;;;10.95;8.57;;;14.10;96.70;;;;;;4930827;29;20053;-69
2024/02/18 10:16:57;;;;;;;10.32;8.32;;;14.10;96.70;;;;;;4929794;29;20055;-69
2024/02/18 10:19:28;;;;;;;11.32;8.60;;;14.20;96.70;;;;;;4930039;29;20878;-70
2024/02/18 10:22:00;;;;;;;11.43;8.48;;;14.30;96.70;;;;;;4911435;29;20501;-69
2024/02/18 10:24:31;;;;;;;12.80;10.50;;;14.50;96.70;;;;;;4905508;29;20059;-69
2024/02/18 10:27:00;;;;;;;28.02;21.45;;;14.60;96.70;;;;;;4923769;29;20150;-69
2024/02/18 10:29:30;;;;;;;21.77;16.13;;;14.60;96.70;;;;;;4939292;29;20471;-68
2024/02/18 10:31:59;;;;;;;15.73;11.90;;;14.60;96.70;;;;;;4913782;29;20050;-68
2024/02/18 10:34:29;;;;;;;13.60;9.60;;;14.70;96.70;;;;;;4914993;29;20600;-68
2024/02/18 10:37:07;;;;;;;13.27;10.15;;;14.80;96.70;;;;;;4913565;29;20047;-70
2024/02/18 10:39:42;;;;;;;15.35;11.45;;;15.00;96.70;;;;;;4911708;29;20051;-65
2024/02/18 10:42:15;;;;;;;12.40;10.00;;;15.00;96.70;;;;;;4914465;29;20512;-68
2024/02/18 10:44:45;;;;;;;18.05;11.85;;;15.10;96.70;;;;;;4928100;29;20461;-66
2024/02/18 10:47:16;;;;;;;16.63;11.20;;;15.20;96.70;;;;;;4909787;29;20064;-65
2024/02/18 10:49:52;;;;;;;15.57;11.45;;;15.30;96.70;;;;;;4929925;29;20416;-65
2024/02/18 10:55:57;;;;;;;13.85;10.70;;;15.50;96.70;;;;;;4927167;29;20059;-64
2024/02/18 10:58:32;;;;;;;15.25;10.73;;;15.50;96.70;;;;;;4916546;29;20055;-65
2024/02/18 11:01:07;;;;;;;13.97;10.50;;;15.60;96.70;;;;;;4952818;28;20083;-64
2024/02/18 11:03:46;;;;;;;11.93;9.57;;;15.70;96.70;;;;;;4944404;28;20550;-65
2024/02/18 11:06:15;;;;;;;13.13;10.77;;;15.80;96.70;;;;;;4929724;29;20052;-65
2024/02/18 11:08:45;;;;;;;17.25;11.30;;;16.00;96.70;;;;;;4930943;29;20044;-65
2024/02/18 11:11:16;;;;;;;14.20;9.70;;;16.20;96.70;;;;;;4913668;29;20079;-65
2024/02/18 11:13:46;;;;;;;12.07;10.23;;;16.30;96.70;;;;;;4913556;29;20052;-64
2024/02/18 11:16:15;;;;;;;14.73;10.02;;;16.50;96.70;;;;;;4929416;29;20445;-65
2024/02/18 11:18:46;;;;;;;11.63;9.60;;;16.50;96.70;;;;;;4910867;29;20522;-64
2024/02/18 11:21:15;;;;;;;14.05;10.35;;;16.80;96.70;;;;;;4906487;29;20071;-65
2024/02/18 11:23:47;;;;;;;14.18;10.85;;;16.80;96.70;;;;;;4928654;29;20047;-64
2024/02/18 11:26:17;;;;;;;15.60;11.43;;;16.90;96.70;;;;;;4910901;29;20082;-64
2024/02/18 11:28:47;;;;;;;16.00;12.15;;;17.00;96.70;;;;;;4926435;29;20052;-64
2024/02/18 11:31:20;;;;;;;11.18;9.98;;;17.20;96.70;;;;;;4928733;29;20142;-64
2024/02/18 11:33:53;;;;;;;13.35;9.07;;;17.20;96.70;;;;;;4926057;29;20052;-65
2024/02/18 11:36:24;;;;;;;11.43;8.63;;;17.40;96.70;;;;;;4929330;29;20058;-65
2024/02/18 11:38:57;;;;;;;10.88;9.25;;;17.60;96.70;;;;;;4926119;29;20535;-65
2024/02/18 11:41:29;;;;;;;14.43;9.32;;;17.80;96.70;;;;;;4929523;29;20052;-64
2024/02/18 11:43:59;;;;;;;14.80;9.93;;;18.00;96.70;;;;;;4908913;29;20793;-65
2024/02/18 11:46:28;;;;;;;12.43;9.38;;;18.10;96.70;;;;;;4910482;29;20048;-64
2024/02/18 11:48:57;;;;;;;13.18;8.48;;;18.10;96.70;;;;;;4914168;29;20056;-65
2024/02/18 11:51:27;;;;;;;9.07;7.85;;;18.00;96.70;;;;;;4926169;29;20107;-65
2024/02/18 11:53:56;;;;;;;11.05;8.85;;;17.80;96.70;;;;;;4926085;29;20128;-65
2024/02/18 11:56:29;;;;;;;9.65;7.50;;;17.60;96.70;;;;;;4928308;29;20097;-65
2024/02/18 11:58:58;;;;;;;11.25;7.93;;;17.50;96.70;;;;;;4907659;29;20052;-65
2024/02/18 12:01:27;;;;;;;10.60;8.30;;;17.50;96.70;;;;;;4909674;29;20043;-65
2024/02/18 12:03:58;;;;;;;9.38;7.90;;;17.60;96.70;;;;;;4925504;29;20048;-65
2024/02/18 12:06:26;;;;;;;9.27;7.95;;;17.60;96.70;;;;;;4905765;29;20494;-65
2024/02/18 12:08:55;;;;;;;9.93;7.72;;;17.50;96.70;;;;;;4929028;29;20074;-65
2024/02/18 12:11:26;;;;;;;11.30;7.63;;;17.70;96.70;;;;;;4909625;29;20071;-64
2024/02/18 12:13:57;;;;;;;11.60;8.15;;;17.90;96.70;;;;;;4911028;29;20051;-65
2024/02/18 12:16:27;;;;;;;10.40;7.60;;;18.10;96.70;;;;;;4913189;29;20098;-65
2024/02/18 12:18:56;;;;;;;8.57;7.22;;;18.30;96.70;;;;;;4928334;29;20059;-65
2024/02/18 12:21:28;;;;;;;10.45;7.20;;;18.40;96.70;;;;;;4935387;29;20516;-64
2024/02/18 12:24:00;;;;;;;7.60;6.43;;;18.50;96.70;;;;;;4927830;29;20146;-65
2024/02/18 12:26:39;;;;;;;10.77;6.90;;;18.60;96.70;;;;;;4913266;29;20066;-65
2024/02/18 12:29:11;;;;;;;7.97;6.57;;;18.80;96.70;;;;;;4929382;29;20063;-65
2024/02/18 12:31:41;;;;;;;8.82;5.75;;;18.90;96.70;;;;;;4912968;29;20111;-65
2024/02/18 12:34:10;;;;;;;8.93;5.50;;;19.00;96.70;;;;;;4928148;29;20735;-65
2024/02/18 12:36:43;;;;;;;6.70;5.88;;;19.20;96.70;;;;;;4928436;29;20050;-65
2024/02/18 12:39:13;;;;;;;9.02;6.60;;;19.20;96.70;;;;;;4927690;29;20062;-65
2024/02/18 12:41:44;;;;;;;11.32;8.05;;;19.20;96.70;;;;;;4928351;29;20052;-65
2024/02/18 12:44:15;;;;;;;8.98;6.90;;;19.30;96.70;;;;;;4928446;29;20413;-65
2024/02/18 12:46:47;;;;;;;9.10;7.40;;;19.30;96.70;;;;;;4929183;29;20504;-65
2024/02/18 12:49:17;;;;;;;10.95;7.65;;;19.40;96.70;;;;;;4927855;29;20417;-65
2024/02/18 12:51:49;;;;;;;9.45;6.93;;;19.40;96.70;;;;;;4927000;29;20044;-65
2024/02/18 12:54:20;;;;;;;9.02;6.43;;;19.40;96.70;;;;;;4924583;29;20048;-65
2024/02/18 12:56:49;;;;;;;10.27;7.18;;;19.60;96.70;;;;;;4924765;29;20074;-67
2024/02/18 12:59:21;;;;;;;13.18;8.63;;;19.60;96.70;;;;;;4941150;29;20070;-68
2024/02/18 13:01:52;;;;;;;8.75;6.80;;;19.60;96.70;;;;;;4912904;29;20517;-68
2024/02/18 13:04:23;;;;;;;11.25;6.93;;;19.70;96.70;;;;;;4927214;29;20646;-67